createdAt,value
2022-10-17T00:04:01.746Z,23.00
2022-10-17T00:07:03.590Z,22.30
2022-10-17T00:10:06.897Z,22.60
2022-10-17T00:13:09.472Z,22.00
2022-10-17T00:16:11.253Z,19.10
2022-10-17T00:19:12.860Z,18.20
2022-10-17T00:25:16.302Z,23.20
2022-10-17T00:28:17.854Z,24.20
2022-10-17T00:34:22.034Z,26.20
2022-10-17T00:37:23.806Z,25.40
2022-10-17T00:40:25.613Z,24.10
2022-10-17T00:43:27.665Z,23.00
2022-10-17T00:46:31.965Z,22.30
2022-10-17T00:49:36.173Z,21.70
2022-10-17T00:52:37.888Z,22.40
2022-10-17T00:55:46.371Z,27.00
2022-10-17T00:58:48.501Z,26.60
2022-10-17T01:02:13.637Z,29.30
2022-10-17T01:05:16.266Z,28.00
2022-10-17T01:08:17.960Z,28.70
2022-10-17T01:11:40.235Z,29.30
2022-10-17T01:15:06.815Z,26.70
2022-10-17T01:18:08.588Z,26.30
2022-10-17T01:21:32.136Z,25.80
2022-10-17T01:24:56.395Z,26.00
2022-10-17T01:28:19.526Z,26.90
2022-10-17T01:31:43.853Z,25.20
2022-10-17T01:34:55.106Z,23.70
2022-10-17T01:38:14.722Z,28.60
2022-10-17T01:41:35.878Z,21.60
2022-10-17T01:44:58.870Z,19.40
2022-10-17T01:48:05.671Z,19.60
2022-10-17T01:51:18.763Z,20.30
2022-10-17T01:54:27.517Z,21.40
2022-10-17T01:57:33.109Z,20.80
2022-10-17T02:00:35.799Z,21.30
2022-10-17T02:03:39.942Z,21.70
2022-10-17T02:06:41.586Z,22.30
2022-10-17T02:09:43.460Z,21.90
2022-10-17T02:13:04.053Z,21.70
2022-10-17T02:16:15.110Z,20.80
2022-10-17T02:19:41.431Z,18.20
2022-10-17T02:22:49.978Z,17.90
2022-10-17T02:26:00.263Z,18.40
2022-10-17T02:29:21.974Z,16.20
2022-10-17T02:32:40.754Z,15.00
2022-10-17T02:35:47.230Z,15.40
2022-10-17T02:38:50.505Z,16.60
2022-10-17T02:41:52.971Z,17.70
2022-10-17T02:44:55.557Z,17.60
2022-10-17T02:48:12.416Z,17.00
2022-10-17T02:51:28.051Z,16.60
2022-10-17T02:54:38.149Z,16.70
2022-10-17T02:57:45.950Z,15.50
2022-10-17T03:00:47.793Z,16.40
2022-10-17T03:03:50.619Z,15.80
2022-10-17T03:06:52.378Z,15.70
2022-10-17T03:09:54.153Z,15.00
2022-10-17T03:15:58.505Z,14.00
2022-10-17T03:19:00.108Z,13.80
2022-10-17T03:25:03.826Z,13.00
2022-10-17T03:28:05.964Z,14.00
2022-10-17T03:31:09.542Z,13.70
2022-10-17T03:34:11.510Z,14.00
2022-10-17T03:41:55.660Z,13.00
2022-10-17T03:44:57.472Z,12.90
2022-10-17T05:05:01.984Z,12.60
2022-10-17T05:08:09.849Z,13.40
2022-10-17T05:11:23.171Z,14.00
2022-10-17T05:14:24.964Z,13.90
2022-10-17T05:17:26.771Z,13.30
2022-10-17T05:20:28.589Z,13.60
2022-10-17T05:23:30.946Z,14.50
2022-10-17T05:26:32.655Z,15.40
2022-10-17T05:29:34.811Z,16.80
2022-10-17T05:32:36.777Z,19.00
2022-10-17T05:35:38.384Z,18.90
2022-10-17T05:41:41.692Z,15.10
2022-10-17T05:44:43.394Z,14.80
2022-10-17T05:47:46.166Z,12.30
2022-10-17T05:50:47.926Z,13.00
2022-10-17T05:53:49.617Z,17.20
2022-10-17T05:56:55.788Z,14.90
2022-10-17T05:59:57.507Z,9.70
2022-10-17T06:02:59.202Z,10.50
2022-10-17T06:06:09.485Z,10.40
2022-10-17T06:09:11.852Z,11.10
2022-10-17T06:12:13.637Z,10.70
2022-10-17T06:15:15.450Z,11.60
2022-10-17T06:18:17.188Z,10.80
2022-10-17T06:21:27.108Z,10.30
2022-10-17T06:24:28.892Z,10.90
2022-10-17T06:27:30.711Z,9.90
2022-10-17T06:30:32.448Z,10.80
2022-10-17T06:33:34.446Z,10.30
2022-10-17T06:36:36.146Z,10.80
2022-10-17T06:39:37.912Z,10.60
2022-10-17T06:42:39.750Z,11.20
2022-10-17T06:45:42.000Z,10.90
2022-10-17T06:48:43.856Z,11.20
2022-10-17T06:51:45.944Z,11.80
2022-10-17T06:54:47.596Z,11.60
2022-10-17T06:57:49.375Z,11.90
2022-10-17T07:00:51.196Z,11.30
2022-10-17T07:03:53.120Z,11.00
2022-10-17T07:06:54.825Z,11.20
2022-10-17T07:09:56.705Z,11.40
2022-10-17T07:12:58.291Z,11.60
2022-10-17T07:16:01.871Z,11.20
2022-10-17T07:19:03.787Z,12.50
2022-10-17T07:22:06.361Z,12.20
2022-10-17T07:25:09.151Z,10.90
2022-10-17T07:28:10.910Z,12.20
2022-10-17T07:31:15.856Z,12.40
2022-10-17T07:34:18.484Z,13.00
2022-10-17T07:37:20.048Z,12.00
2022-10-17T07:40:22.382Z,11.40
2022-10-17T07:43:25.434Z,11.80
2022-10-17T07:46:27.204Z,12.10
2022-10-17T07:49:29.432Z,11.70
2022-10-17T07:52:32.061Z,11.90
2022-10-17T07:55:33.977Z,12.20
2022-10-17T07:58:36.780Z,11.20
2022-10-17T08:01:38.536Z,11.50
2022-10-17T08:04:40.297Z,12.40
2022-10-17T08:07:41.988Z,13.20
2022-10-17T08:10:43.714Z,13.60
2022-10-17T08:13:45.361Z,11.90
2022-10-17T08:16:47.103Z,12.10
2022-10-17T08:19:48.718Z,10.40
2022-10-17T08:22:54.539Z,10.00
2022-10-17T08:25:59.842Z,10.00
2022-10-17T08:29:01.780Z,9.30
2022-10-17T08:32:05.418Z,9.00
2022-10-17T08:35:08.746Z,9.40
2022-10-17T08:38:12.306Z,8.90
2022-10-17T08:41:53.464Z,8.70
2022-10-17T08:48:19.512Z,7.50
2022-10-17T08:51:24.816Z,7.70
2022-10-17T08:54:40.510Z,8.00
2022-10-17T08:57:43.009Z,8.20
2022-10-17T09:00:59.134Z,8.30
2022-10-17T09:04:03.991Z,7.90
2022-10-17T09:07:23.024Z,7.50
2022-10-17T09:10:53.949Z,7.80
2022-10-17T09:14:15.580Z,7.90
2022-10-17T09:17:39.010Z,8.30
2022-10-17T09:20:45.116Z,7.80
2022-10-17T09:23:59.555Z,8.50
2022-10-17T09:27:40.985Z,8.30
2022-10-17T09:30:57.260Z,7.70
2022-10-17T09:34:01.714Z,7.60
2022-10-17T09:37:03.718Z,8.00
2022-10-17T09:40:07.956Z,7.70
2022-10-17T09:43:12.013Z,7.90
2022-10-17T09:46:25.850Z,8.10
2022-10-17T09:49:37.152Z,8.30
2022-10-17T09:52:48.653Z,8.10
2022-10-17T09:55:56.279Z,7.80
2022-10-17T09:58:59.155Z,7.70
2022-10-17T10:02:13.070Z,7.80
2022-10-17T10:05:18.034Z,8.10
2022-10-17T10:08:21.491Z,8.00
2022-10-17T10:11:26.679Z,7.50
2022-10-17T10:14:33.673Z,7.70
2022-10-17T10:17:41.996Z,7.50
2022-10-17T10:20:46.964Z,7.90
2022-10-17T10:24:12.621Z,7.70
2022-10-17T10:27:17.102Z,7.70
2022-10-17T10:30:28.348Z,7.20
2022-10-17T10:33:30.908Z,7.00
2022-10-17T10:37:25.327Z,7.20
2022-10-17T10:40:33.381Z,7.20
2022-10-17T10:43:40.530Z,8.00
2022-10-17T10:46:42.290Z,7.30
2022-10-17T10:49:45.421Z,7.60
2022-10-17T10:52:56.690Z,7.20
2022-10-17T10:56:11.675Z,7.70
2022-10-17T10:59:28.529Z,7.00
2022-10-17T11:03:13.012Z,7.30
2022-10-17T11:06:20.614Z,7.00
2022-10-17T11:09:33.016Z,7.70
2022-10-17T11:12:46.901Z,7.30
2022-10-17T11:15:58.278Z,7.00
2022-10-17T11:19:05.003Z,7.50
2022-10-17T11:22:24.021Z,7.80
2022-10-17T11:25:37.450Z,7.10
2022-10-17T11:28:39.181Z,7.10
2022-10-17T11:31:46.351Z,6.70
2022-10-17T11:34:51.696Z,6.90
2022-10-17T11:38:17.200Z,7.50
2022-10-17T11:41:38.793Z,7.20
2022-10-17T11:44:41.708Z,7.60
2022-10-17T11:47:49.890Z,7.80
2022-10-17T11:54:35.539Z,8.50
2022-10-17T11:57:46.678Z,8.70
2022-10-17T12:00:55.410Z,7.90
2022-10-17T12:04:31.529Z,8.70
2022-10-17T12:07:56.865Z,9.60
2022-10-17T12:11:04.469Z,9.00
2022-10-17T12:14:45.800Z,9.60
2022-10-17T12:18:01.062Z,9.20
2022-10-17T12:21:03.231Z,8.30
2022-10-17T12:24:05.358Z,9.00
2022-10-17T12:27:30.973Z,8.70
2022-10-17T12:31:01.332Z,8.80
2022-10-17T12:34:04.613Z,9.30
2022-10-17T12:37:11.443Z,8.50
2022-10-17T12:40:47.754Z,8.80
2022-10-17T12:43:53.205Z,8.40
2022-10-17T12:47:10.705Z,8.30
2022-10-17T12:51:34.261Z,9.10
2022-10-17T12:54:37.894Z,8.50
2022-10-17T12:57:51.882Z,8.40
2022-10-17T13:01:24.969Z,8.70
2022-10-17T13:04:18.199Z,8.30
2022-10-17T13:07:22.335Z,9.00
2022-10-17T13:10:28.303Z,8.50
2022-10-17T13:13:48.940Z,8.60
2022-10-17T13:17:27.661Z,8.80
2022-10-17T13:20:31.858Z,8.80
2022-10-17T13:23:36.973Z,7.90
2022-10-17T13:26:45.628Z,7.90
2022-10-17T13:29:47.389Z,8.10
2022-10-17T13:32:49.337Z,7.90
2022-10-17T13:36:06.419Z,7.50
2022-10-17T13:39:13.109Z,8.00
2022-10-17T13:42:23.380Z,7.70
2022-10-17T13:45:37.469Z,8.00
2022-10-17T13:48:39.419Z,7.80
2022-10-17T13:51:50.320Z,8.20
2022-10-17T13:54:53.786Z,7.80
2022-10-17T13:57:55.411Z,8.10
2022-10-17T14:00:57.460Z,7.80
2022-10-17T14:04:20.195Z,7.90
2022-10-17T14:07:26.826Z,7.90
2022-10-17T14:10:34.162Z,7.90
2022-10-17T14:13:36.211Z,8.00
2022-10-17T14:16:40.372Z,8.20
2022-10-17T14:19:42.179Z,8.00
2022-10-17T14:22:47.276Z,8.20
2022-10-17T14:26:11.819Z,8.20
2022-10-17T14:29:24.356Z,8.10
2022-10-17T14:32:27.590Z,8.10
2022-10-17T14:35:41.522Z,7.80
2022-10-17T14:38:49.220Z,7.90
2022-10-17T14:41:52.186Z,7.80
2022-10-17T14:44:54.835Z,7.90
2022-10-17T14:48:04.649Z,8.00
2022-10-17T14:51:15.402Z,8.10
2022-10-17T14:54:26.254Z,7.50
2022-10-17T14:57:49.825Z,8.10
2022-10-17T15:00:51.791Z,8.20
2022-10-17T15:03:53.709Z,8.10
2022-10-17T15:06:55.541Z,8.10
2022-10-17T15:09:57.222Z,8.50
2022-10-17T15:13:27.945Z,8.50
2022-10-17T15:16:30.897Z,8.20
2022-10-17T15:19:32.658Z,8.20
2022-10-17T15:22:36.657Z,9.30
2022-10-17T15:25:39.211Z,13.00
2022-10-17T15:28:41.104Z,11.70
2022-10-17T15:31:43.115Z,12.10
2022-10-17T15:34:45.148Z,12.50
2022-10-17T15:37:47.079Z,13.40
2022-10-17T15:40:51.154Z,15.30
2022-10-17T15:43:53.125Z,14.40
2022-10-17T15:46:56.398Z,16.20
2022-10-17T15:49:58.751Z,15.50
2022-10-17T15:53:00.448Z,14.70
2022-10-17T15:56:02.628Z,15.40
2022-10-17T15:59:06.757Z,15.10
2022-10-17T16:02:14.568Z,18.00
2022-10-17T16:05:26.106Z,17.80
2022-10-17T16:08:28.385Z,19.30
2022-10-17T16:11:41.178Z,19.20
2022-10-17T16:14:43.244Z,18.40
2022-10-17T16:17:45.029Z,16.60
2022-10-17T16:20:47.224Z,13.50
2022-10-17T16:23:48.981Z,14.60
2022-10-17T16:26:51.225Z,14.00
2022-10-17T16:29:52.810Z,15.40
2022-10-17T16:32:55.966Z,16.60
2022-10-17T16:35:58.097Z,18.60
2022-10-17T16:38:59.777Z,17.50
2022-10-17T16:42:04.689Z,23.20
2022-10-17T16:45:06.686Z,20.00
2022-10-17T16:48:09.387Z,21.30
2022-10-17T16:51:12.635Z,21.60
2022-10-17T16:54:14.355Z,20.50
2022-10-17T16:57:16.001Z,21.70
2022-10-17T17:00:18.326Z,20.70
2022-10-17T17:03:20.125Z,20.70
2022-10-17T17:06:25.394Z,21.70
2022-10-17T17:09:27.111Z,28.50
2022-10-17T17:12:28.842Z,33.40
2022-10-17T17:15:30.497Z,32.40
2022-10-17T17:18:32.397Z,30.30
2022-10-17T17:21:35.103Z,28.70
2022-10-17T17:24:37.203Z,31.50
2022-10-17T17:27:38.950Z,27.60
2022-10-17T17:30:40.738Z,32.30
2022-10-17T17:33:43.114Z,36.80
2022-10-17T17:36:44.895Z,34.00
2022-10-17T17:39:46.717Z,34.30
2022-10-17T17:42:48.435Z,33.80
2022-10-17T17:45:50.239Z,30.50
2022-10-17T17:48:53.334Z,30.10
2022-10-17T17:51:55.085Z,28.30
2022-10-17T17:54:56.966Z,39.70
2022-10-17T17:57:58.864Z,41.90
2022-10-17T18:01:01.194Z,40.30
2022-10-17T18:04:03.857Z,36.90
2022-10-17T18:07:05.833Z,31.00
2022-10-17T18:10:08.466Z,28.60
2022-10-17T18:13:10.198Z,27.80
2022-10-17T18:16:16.903Z,29.00
2022-10-17T18:19:19.020Z,30.20
2022-10-17T18:22:20.930Z,29.10
2022-10-17T18:25:22.801Z,30.00
2022-10-17T18:28:24.841Z,38.10
2022-10-17T18:31:32.370Z,40.40
2022-10-17T18:34:34.130Z,42.70
2022-10-17T18:37:35.758Z,47.00
2022-10-17T18:40:38.055Z,40.70
2022-10-17T18:43:41.582Z,45.00
2022-10-17T18:46:43.270Z,42.70
2022-10-17T18:49:45.158Z,50.00
2022-10-17T18:52:48.203Z,46.50
2022-10-17T18:55:51.388Z,45.40
2022-10-17T18:58:53.595Z,47.70
2022-10-17T19:01:55.452Z,48.10
2022-10-17T19:04:57.436Z,48.20
2022-10-17T19:07:59.557Z,37.20
2022-10-17T19:11:13.439Z,31.50
2022-10-17T19:14:15.224Z,28.80
2022-10-17T19:17:17.326Z,26.80
2022-10-17T19:20:18.951Z,32.60
2022-10-17T19:23:20.931Z,38.60
2022-10-17T19:26:23.446Z,35.90
2022-10-17T19:29:28.166Z,32.10
2022-10-17T19:32:31.259Z,30.70
2022-10-17T19:35:34.941Z,28.00
2022-10-17T19:38:36.910Z,30.10
2022-10-17T19:41:43.058Z,42.40
2022-10-17T19:44:44.687Z,35.70
2022-10-17T19:47:46.271Z,24.30
2022-10-17T19:50:49.954Z,24.60
2022-10-17T19:53:52.795Z,24.10
2022-10-17T19:56:54.546Z,22.50
2022-10-17T19:59:56.883Z,30.80
2022-10-17T20:03:02.656Z,30.80
2022-10-17T20:06:04.873Z,27.00
2022-10-17T20:09:08.810Z,28.00
2022-10-17T20:12:12.971Z,22.50
2022-10-17T20:15:14.819Z,18.50
2022-10-17T20:18:16.818Z,14.90
2022-10-17T20:21:21.693Z,15.60
2022-10-17T20:24:23.413Z,16.40
2022-10-17T20:27:27.648Z,15.80
2022-10-17T20:30:29.709Z,15.60
2022-10-17T20:33:32.131Z,15.20
2022-10-17T20:36:37.324Z,17.00
2022-10-17T20:39:39.405Z,17.70
2022-10-17T20:42:41.087Z,17.50
2022-10-17T20:45:51.286Z,19.90
2022-10-17T20:48:54.827Z,18.40
2022-10-17T20:51:56.759Z,18.40
2022-10-17T20:54:58.372Z,17.90
2022-10-17T20:58:00.153Z,17.70
2022-10-17T21:01:08.123Z,15.80
2022-10-17T21:07:31.690Z,12.40
2022-10-17T21:10:35.820Z,14.10
2022-10-17T21:13:38.346Z,15.00
2022-10-17T21:16:41.334Z,15.50
2022-10-17T21:19:43.082Z,16.80
2022-10-17T21:22:44.777Z,16.50
2022-10-17T21:25:46.426Z,16.60
2022-10-17T21:28:48.908Z,14.30
2022-10-17T21:31:51.335Z,15.00
2022-10-17T21:34:53.004Z,14.10
2022-10-17T21:37:54.724Z,13.10
2022-10-17T21:40:56.322Z,13.70
2022-10-17T21:44:00.560Z,14.30
2022-10-17T21:47:02.825Z,13.70
2022-10-17T21:50:04.858Z,14.50
2022-10-17T21:53:06.493Z,13.70
2022-10-17T21:56:11.722Z,12.50
2022-10-17T21:59:13.363Z,15.40
2022-10-17T22:02:16.433Z,13.30
2022-10-17T22:05:18.081Z,12.80
2022-10-17T22:08:19.790Z,13.20
2022-10-17T22:11:28.409Z,16.80
2022-10-17T22:14:30.332Z,14.60
2022-10-17T22:17:32.330Z,13.50
2022-10-17T22:20:34.934Z,14.70
2022-10-17T22:23:38.317Z,15.70
2022-10-17T22:26:41.498Z,14.60
2022-10-17T22:29:46.268Z,15.80
2022-10-17T22:32:47.999Z,15.90
2022-10-17T22:41:53.009Z,12.40
2022-10-17T22:44:54.665Z,12.10
2022-10-17T22:50:59.152Z,12.30
2022-10-17T22:54:01.036Z,13.30
2022-10-17T22:57:02.713Z,14.20
2022-10-17T23:00:06.345Z,13.80
2022-10-17T23:03:08.087Z,14.00
2022-10-17T23:06:29.558Z,14.80
2022-10-17T23:09:46.581Z,13.70
2022-10-17T23:12:48.288Z,15.50
2022-10-17T23:18:53.216Z,15.20
2022-10-17T23:24:56.587Z,15.90
2022-10-17T23:27:58.290Z,15.20
2022-10-17T23:31:09.183Z,15.30
2022-10-17T23:34:10.877Z,17.40
2022-10-17T23:37:12.517Z,16.70
2022-10-17T23:43:15.605Z,20.30
2022-10-17T23:46:17.668Z,17.60
2022-10-17T23:49:19.293Z,17.10
2022-10-17T23:55:22.516Z,19.10
2022-10-17T23:58:24.144Z,17.90
